createdAt,value
2018-09-18T00:00:13.503Z,24.4
2018-09-18T00:01:04.074Z,24.5
2018-09-18T00:01:54.109Z,24.5
2018-09-18T00:02:44.187Z,24.4
2018-09-18T00:03:34.512Z,24.4
2018-09-18T00:04:24.312Z,24.4
2018-09-18T00:05:14.377Z,24.4
2018-09-18T00:06:04.437Z,24.4
2018-09-18T00:06:54.231Z,24.4
2018-09-18T00:07:44.307Z,24.4
2018-09-18T00:08:34.639Z,24.4
2018-09-18T00:09:24.409Z,24.4
2018-09-18T00:10:14.757Z,24.4
2018-09-18T00:11:04.811Z,24.4
2018-09-18T00:11:54.592Z,24.4
2018-09-18T00:12:44.942Z,24.4
2018-09-18T00:13:34.449Z,24.4
2018-09-18T00:14:25.116Z,24.4
2018-09-18T00:15:14.836Z,24.4
2018-09-18T00:16:04.621Z,24.4
2018-09-18T00:16:55.264Z,24.4
2018-09-18T00:17:44.761Z,24.4
2018-09-18T00:18:35.371Z,24.4
2018-09-18T00:19:25.151Z,24.4
2018-09-18T00:20:15.518Z,24.4
2018-09-18T00:21:05.644Z,24.4
2018-09-18T00:21:54.780Z,24.4
2018-09-18T00:22:45.426Z,24.4
2018-09-18T00:23:35.759Z,24.4
2018-09-18T00:24:26.129Z,24.4
2018-09-18T00:25:15.636Z,24.4
2018-09-18T00:26:05.396Z,24.4
2018-09-18T00:26:55.476Z,24.4
2018-09-18T00:27:46.079Z,24.4
2018-09-18T00:28:35.838Z,24.4
2018-09-18T00:29:26.213Z,24.4
2018-09-18T00:30:16.276Z,24.4
2018-09-18T00:31:06.353Z,24.4
2018-09-18T00:31:56.113Z,24.4
2018-09-18T00:32:46.182Z,24.4
2018-09-18T00:33:36.512Z,24.4
2018-09-18T00:34:26.301Z,24.4
2018-09-18T00:35:16.400Z,24.4
2018-09-18T00:36:06.148Z,24.4
2018-09-18T00:36:56.800Z,24.4
2018-09-18T00:56:30.441Z,24.3
2018-09-18T00:57:20.479Z,24.4
2018-09-18T00:58:10.801Z,24.4
2018-09-18T00:59:01.129Z,24.3
2018-09-18T00:59:50.917Z,24.4
2018-09-18T01:00:40.438Z,24.4
2018-09-18T01:01:31.011Z,24.4
2018-09-18T01:02:20.813Z,24.3
2018-09-18T01:03:10.600Z,24.4
2018-09-18T01:04:01.183Z,24.3
2018-09-18T01:04:51.025Z,24.3
2018-09-18T01:05:41.075Z,24.4
2018-09-18T01:06:31.671Z,24.3
2018-09-18T01:07:21.750Z,24.3
2018-09-18T01:08:11.536Z,24.3
2018-09-18T01:09:01.421Z,24.3
2018-09-18T01:09:51.382Z,24.3
2018-09-18T01:10:41.725Z,24.3
2018-09-18T01:11:31.757Z,24.3
2018-09-18T01:12:21.705Z,24.4
2018-09-18T01:13:11.657Z,24.4
2018-09-18T01:14:01.939Z,24.4
2018-09-18T01:14:52.060Z,24.3
2018-09-18T01:15:42.168Z,24.3
2018-09-18T01:16:32.425Z,24.3
2018-09-18T01:17:22.505Z,24.4
2018-09-18T01:18:12.324Z,24.3
2018-09-18T01:19:02.083Z,24.3
2018-09-18T01:19:52.133Z,24.3
2018-09-18T01:20:42.233Z,24.3
2018-09-18T01:21:31.694Z,24.3
2018-09-18T01:22:22.677Z,24.3
2018-09-18T01:23:12.384Z,24.3
2018-09-18T01:24:01.969Z,24.3
2018-09-18T01:24:52.636Z,24.3
2018-09-18T01:25:42.611Z,24.3
2018-09-18T01:26:32.685Z,24.3
2018-09-18T01:27:22.719Z,24.3
2018-09-18T01:28:13.045Z,24.3
2018-09-18T01:29:03.141Z,24.3
2018-09-18T01:29:52.632Z,24.3
2018-09-18T01:30:42.998Z,24.3
2018-09-18T01:31:33.039Z,24.3
2018-09-18T01:32:23.082Z,24.3
2018-09-18T01:33:13.434Z,24.3
2018-09-18T01:34:03.501Z,24.3
2018-09-18T01:34:52.714Z,24.3
2018-09-18T01:35:43.066Z,24.3
2018-09-18T01:36:33.699Z,24.3
2018-09-18T01:37:23.754Z,24.3
2018-09-18T01:38:13.547Z,24.3
2018-09-18T01:39:03.603Z,24.3
2018-09-18T01:39:53.687Z,24.3
2018-09-18T01:40:43.473Z,24.3
2018-09-18T01:41:34.081Z,24.3
2018-09-18T01:42:24.128Z,24.3
2018-09-18T01:43:13.631Z,24.3
2018-09-18T01:44:03.694Z,24.3
2018-09-18T01:44:54.558Z,24.3
2018-09-18T01:45:44.089Z,24.3
2018-09-18T01:46:34.464Z,24.3
2018-09-18T01:47:24.221Z,24.3
2018-09-18T01:48:14.027Z,24.3
2018-09-18T01:49:04.355Z,24.3
2018-09-18T01:49:54.743Z,24.3
2018-09-18T01:50:45.029Z,24.3
2018-09-18T01:51:34.295Z,24.3
2018-09-18T01:52:24.844Z,24.3
2018-09-18T01:53:14.685Z,24.3
2018-09-18T01:54:04.731Z,24.3
2018-09-18T01:54:55.128Z,24.3
2018-09-18T01:55:45.189Z,24.3
2018-09-18T01:56:35.243Z,24.3
2018-09-18T01:57:25.265Z,24.3
2018-09-18T01:58:15.647Z,24.3
2018-09-18T01:59:05.143Z,24.3
2018-09-18T01:59:55.717Z,24.3
2018-09-18T02:00:45.548Z,24.3
2018-09-18T02:01:35.317Z,24.3
2018-09-18T02:02:25.385Z,24.3
2018-09-18T02:03:15.437Z,24.3
2018-09-18T02:04:05.790Z,24.3
2018-09-18T02:04:56.117Z,24.3
2018-09-18T02:05:45.612Z,24.3
2018-09-18T02:06:35.687Z,24.3
2018-09-18T02:07:25.742Z,24.3
2018-09-18T02:08:16.080Z,24.3
2018-09-18T02:09:05.877Z,24.3
2018-09-18T02:09:56.257Z,24.3
2018-09-18T02:10:46.289Z,24.3
2018-09-18T02:11:36.332Z,24.3
2018-09-18T02:12:26.119Z,24.3
2018-09-18T02:13:16.467Z,24.3
2018-09-18T02:14:06.547Z,24.3
2018-09-18T02:14:56.834Z,24.2
2018-09-18T02:15:46.392Z,24.3
2018-09-18T02:16:36.720Z,24.3
2018-09-18T02:17:26.510Z,24.3
2018-09-18T02:18:16.564Z,24.3
2018-09-18T02:19:06.337Z,24.3
2018-09-18T02:19:56.954Z,24.3
2018-09-18T02:20:47.029Z,24.3
2018-09-18T02:21:37.113Z,24.3
2018-09-18T02:22:27.164Z,24.3
2018-09-18T02:23:17.187Z,24.3
2018-09-18T02:24:07.301Z,24.3
2018-09-18T02:24:57.361Z,24.3
2018-09-18T02:25:47.136Z,24.3
2018-09-18T02:26:37.194Z,24.3
2018-09-18T02:27:26.706Z,24.2
2018-09-18T02:28:17.846Z,24.3
2018-09-18T02:29:07.673Z,24.2
2018-09-18T02:29:57.734Z,24.3
2018-09-18T02:30:47.801Z,24.2
2018-09-18T02:31:37.583Z,24.3
2018-09-18T02:32:27.636Z,24.2
2018-09-18T02:33:17.996Z,24.3
2018-09-18T02:34:08.066Z,24.2
2018-09-18T02:34:58.121Z,24.2
2018-09-18T02:35:48.198Z,24.2
2018-09-18T02:36:37.684Z,24.2
2018-09-18T02:37:28.033Z,24.2
2018-09-18T02:38:18.073Z,24.2
2018-09-18T02:39:08.415Z,24.2
2018-09-18T02:39:58.522Z,24.2
2018-09-18T02:40:48.578Z,24.2
2018-09-18T02:41:38.619Z,24.2
2018-09-18T02:42:28.693Z,24.2
2018-09-18T02:43:18.804Z,24.2
2018-09-18T02:44:08.506Z,24.2
2018-09-18T02:44:58.620Z,24.2
2018-09-18T02:45:48.658Z,24.2
2018-09-18T02:46:38.722Z,24.2
2018-09-18T02:47:28.764Z,24.2
2018-09-18T02:48:19.167Z,24.2
2018-09-18T02:49:08.917Z,24.2
2018-09-18T02:49:59.264Z,24.2
2018-09-18T02:50:48.772Z,24.2
2018-09-18T02:51:38.789Z,24.2
2018-09-18T02:52:28.884Z,24.2
2018-09-18T02:53:18.929Z,24.2
2018-09-18T02:54:08.995Z,24.2
2018-09-18T02:54:59.289Z,24.2
2018-09-18T02:55:49.711Z,24.2
2018-09-18T02:56:39.705Z,24.1
2018-09-18T02:57:29.520Z,24.2
2018-09-18T02:58:19.874Z,24.1
2018-09-18T02:59:09.643Z,24.1
2018-09-18T02:59:59.960Z,24.1
2018-09-18T03:00:49.797Z,24.2
2018-09-18T03:01:40.139Z,24.2
2018-09-18T03:02:29.934Z,24.2
2018-09-18T03:03:19.690Z,24.2
2018-09-18T03:04:10.311Z,24.1
2018-09-18T03:05:00.386Z,24.1
2018-09-18T03:05:50.166Z,24.1
2018-09-18T03:06:40.550Z,24.1
2018-09-18T03:07:30.606Z,24.1
2018-09-18T03:08:20.378Z,24.1
2018-09-18T03:09:10.447Z,24.1
2018-09-18T03:10:00.454Z,24.1
2018-09-18T03:10:50.596Z,24.1
2018-09-18T03:11:40.881Z,24.1
2018-09-18T03:12:30.997Z,24.1
2018-09-18T03:13:20.726Z,24.1
2018-09-18T03:14:10.776Z,24.1
2018-09-18T03:15:00.874Z,24.1
2018-09-18T03:15:50.926Z,24.1
2018-09-18T03:16:41.271Z,24.1
2018-09-18T03:17:31.329Z,24.1
2018-09-18T03:18:21.116Z,24.1
2018-09-18T03:19:11.476Z,24.1
2018-09-18T03:20:01.234Z,24.1
2018-09-18T03:20:51.955Z,24.1
2018-09-18T03:21:41.605Z,24.1
2018-09-18T03:22:31.118Z,24.1
2018-09-18T03:23:21.803Z,24.1
2018-09-18T03:24:11.548Z,24.1
2018-09-18T03:25:01.031Z,24.1
2018-09-18T03:25:52.043Z,24.1
2018-09-18T03:26:41.748Z,24.1
2018-09-18T03:27:32.913Z,24.1
2018-09-18T03:28:22.148Z,24.1
2018-09-18T03:29:12.205Z,24.1
2018-09-18T03:30:01.702Z,24.1
2018-09-18T03:30:52.398Z,24.1
2018-09-18T03:31:42.375Z,24.1
2018-09-18T03:32:32.463Z,24.1
2018-09-18T03:33:21.925Z,24.1
2018-09-18T03:34:12.275Z,24.1
2018-09-18T03:35:02.661Z,24.1
2018-09-18T03:35:53.080Z,24.1
2018-09-18T03:36:42.477Z,24.1
2018-09-18T03:37:32.834Z,24.1
2018-09-18T03:38:22.611Z,24.1
2018-09-18T03:39:12.939Z,24.1
2018-09-18T03:40:02.720Z,24.1
2018-09-18T03:40:52.770Z,24.1
2018-09-18T03:41:42.603Z,24.1
2018-09-18T03:42:33.278Z,24.1
2018-09-18T03:43:23.005Z,24.1
2018-09-18T03:44:12.748Z,24.1
2018-09-18T03:45:03.109Z,24.1
2018-09-18T03:45:53.154Z,24.1
2018-09-18T03:46:42.957Z,24.1
2018-09-18T03:47:33.539Z,24.1
2018-09-18T03:48:23.639Z,24.1
2018-09-18T03:49:13.438Z,24.1
2018-09-18T03:50:03.770Z,24.1
2018-09-18T03:50:52.959Z,24.1
2018-09-18T03:51:43.926Z,24.1
2018-09-18T03:52:33.674Z,24.1
2018-09-18T03:53:23.991Z,24.1
2018-09-18T03:54:14.074Z,24.1
2018-09-18T03:55:03.594Z,24.1
2018-09-18T03:55:54.184Z,24.1
2018-09-18T03:56:44.529Z,24.1
2018-09-18T03:57:34.317Z,24.1
2018-09-18T03:58:24.396Z,24.1
2018-09-18T03:59:14.448Z,24.1
2018-09-18T04:00:04.518Z,24.1
2018-09-18T04:00:54.270Z,24.1
2018-09-18T04:01:44.340Z,24.1
2018-09-18T04:02:34.968Z,24.1
2018-09-18T04:03:24.759Z,24.1
2018-09-18T04:04:14.547Z,24.1
2018-09-18T04:05:04.913Z,24.1
2018-09-18T04:05:54.964Z,24.1
2018-09-18T04:06:45.036Z,24.1
2018-09-18T04:07:34.785Z,24.1
2018-09-18T04:08:24.873Z,24.1
2018-09-18T04:09:14.933Z,24.1
2018-09-18T04:10:05.293Z,24.1
2018-09-18T04:10:55.038Z,24.1
2018-09-18T04:11:45.400Z,24
2018-09-18T04:12:35.512Z,24.1
2018-09-18T04:13:25.245Z,24.1
2018-09-18T04:14:15.550Z,24
2018-09-18T04:15:05.365Z,24
2018-09-18T04:15:55.677Z,24
2018-09-18T04:16:45.770Z,24.1
2018-09-18T04:17:35.781Z,24.1
2018-09-18T04:18:25.325Z,24
2018-09-18T04:19:15.768Z,24.1
2018-09-18T04:20:05.720Z,24
2018-09-18T04:20:56.095Z,24
2018-09-18T04:21:46.140Z,24
2018-09-18T04:22:35.925Z,24
2018-09-18T04:23:26.287Z,24.1
2018-09-18T04:24:16.077Z,24
2018-09-18T04:25:06.111Z,24
2018-09-18T04:25:56.447Z,24
2018-09-18T04:26:46.249Z,24
2018-09-18T04:27:36.250Z,24
2018-09-18T04:28:26.662Z,24
2018-09-18T04:29:16.417Z,24
2018-09-18T04:30:06.203Z,24
2018-09-18T04:30:56.822Z,24
2018-09-18T04:31:46.642Z,24
2018-09-18T04:32:36.996Z,23.9
2018-09-18T04:33:26.429Z,24
2018-09-18T04:34:17.101Z,24
2018-09-18T04:35:06.856Z,24
2018-09-18T04:35:56.926Z,24
2018-09-18T04:36:47.254Z,23.9
2018-09-18T04:37:37.333Z,24
2018-09-18T04:38:27.344Z,23.9
2018-09-18T04:39:17.651Z,24
2018-09-18T04:40:07.218Z,24
2018-09-18T04:40:57.309Z,23.9
2018-09-18T04:41:47.646Z,23.9
2018-09-18T04:42:37.427Z,23.9
2018-09-18T04:43:27.179Z,23.9
2018-09-18T04:44:17.532Z,23.9
2018-09-18T04:45:07.880Z,23.9
2018-09-18T04:45:58.740Z,23.9
2018-09-18T04:46:47.770Z,23.9
2018-09-18T04:47:37.778Z,23.9
2018-09-18T04:48:28.359Z,23.9
2018-09-18T04:49:17.931Z,23.9
2018-09-18T04:50:07.975Z,23.9
2018-09-18T04:50:58.316Z,23.9
2018-09-18T04:51:48.382Z,23.9
2018-09-18T04:52:38.440Z,23.9
2018-09-18T04:53:29.035Z,23.9
2018-09-18T04:54:18.097Z,23.9
2018-09-18T04:55:09.213Z,23.9
2018-09-18T04:55:58.712Z,23.9
2018-09-18T04:56:48.785Z,23.9
2018-09-18T04:57:38.816Z,23.9
2018-09-18T04:58:28.690Z,23.9
2018-09-18T04:59:18.918Z,23.9
2018-09-18T05:00:08.738Z,23.9
2018-09-18T05:00:59.080Z,23.9
2018-09-18T05:01:48.851Z,23.9
2018-09-18T05:02:38.902Z,23.9
2018-09-18T05:03:28.991Z,23.9
2018-09-18T05:04:19.564Z,23.9
2018-09-18T05:05:08.881Z,23.9
2018-09-18T05:05:59.447Z,23.9
2018-09-18T05:06:49.515Z,23.9
2018-09-18T05:07:39.628Z,23.9
2018-09-18T05:25:22.484Z,23.9
2018-09-18T05:26:12.130Z,23.9
2018-09-18T05:27:01.921Z,23.9
2018-09-18T05:27:52.251Z,23.9
2018-09-18T05:28:41.773Z,23.9
2018-09-18T05:29:32.402Z,23.9
2018-09-18T05:30:22.811Z,23.9
2018-09-18T05:31:12.531Z,23.9
2018-09-18T05:32:02.584Z,23.9
2018-09-18T05:32:52.127Z,23.9
2018-09-18T05:33:43.156Z,23.8
2018-09-18T05:34:32.804Z,23.9
2018-09-18T05:35:22.269Z,23.9
2018-09-18T05:36:12.309Z,23.9
2018-09-18T05:37:02.996Z,23.8
2018-09-18T05:37:52.767Z,23.9
2018-09-18T05:38:42.835Z,23.9
2018-09-18T05:39:32.716Z,23.8
2018-09-18T05:40:23.166Z,23.9
2018-09-18T05:41:13.329Z,23.8
2018-09-18T05:42:03.535Z,23.9
2018-09-18T05:42:53.113Z,23.9
2018-09-18T05:43:43.445Z,23.9
2018-09-18T05:44:33.529Z,23.9
2018-09-18T05:45:23.654Z,23.8
2018-09-18T05:46:13.063Z,23.9
2018-09-18T05:47:03.754Z,23.8
2018-09-18T05:47:53.793Z,23.8
2018-09-18T05:48:43.300Z,23.8
2018-09-18T05:49:33.926Z,23.9
2018-09-18T05:50:24.044Z,23.9
2018-09-18T05:51:13.831Z,23.9
2018-09-18T05:52:04.354Z,23.9
2018-09-18T05:52:53.926Z,23.9
2018-09-18T05:53:44.100Z,23.9
2018-09-18T05:54:34.400Z,23.8
2018-09-18T05:55:24.345Z,23.9
2018-09-18T05:56:14.203Z,23.9
2018-09-18T05:57:04.181Z,23.9
2018-09-18T05:57:53.658Z,23.9
2018-09-18T05:58:44.563Z,23.9
2018-09-18T05:59:34.446Z,23.8
2018-09-18T06:00:24.715Z,23.9
2018-09-18T06:01:14.786Z,23.9
2018-09-18T06:02:05.499Z,23.8
2018-09-18T06:02:54.642Z,23.8
2018-09-18T06:03:44.467Z,23.8
2018-09-18T06:04:34.438Z,23.8
2018-09-18T06:05:25.052Z,23.8
2018-09-18T06:06:14.924Z,23.8
2018-09-18T06:07:04.943Z,23.9
2018-09-18T06:07:55.280Z,23.8
2018-09-18T06:08:45.054Z,23.8
2018-09-18T06:09:35.393Z,23.8
2018-09-18T06:10:25.409Z,23.9
2018-09-18T06:11:15.516Z,23.8
2018-09-18T06:12:05.594Z,23.8
2018-09-18T06:12:55.722Z,23.8
2018-09-18T06:13:45.406Z,23.8
2018-09-18T06:14:35.514Z,23.8
2018-09-18T06:15:25.249Z,23.8
2018-09-18T06:16:15.031Z,23.8
2018-09-18T06:17:05.949Z,23.8
2018-09-18T06:17:55.507Z,23.8
2018-09-18T06:18:46.821Z,23.8
2018-09-18T06:19:35.276Z,23.8
2018-09-18T06:20:26.186Z,23.8
2018-09-18T06:21:15.704Z,23.8
2018-09-18T06:22:06.622Z,23.8
2018-09-18T06:22:56.139Z,23.8
2018-09-18T06:23:46.471Z,23.8
2018-09-18T06:24:36.527Z,23.8
2018-09-18T06:25:26.596Z,23.8
2018-09-18T06:26:17.297Z,23.8
2018-09-18T06:27:07.043Z,23.8
2018-09-18T06:27:56.204Z,23.8
2018-09-18T06:28:46.845Z,23.8
2018-09-18T06:29:36.298Z,23.8
2018-09-18T06:30:26.663Z,23.8
2018-09-18T06:31:17.011Z,23.8
2018-09-18T06:32:07.393Z,23.8
2018-09-18T06:32:56.602Z,23.8
2018-09-18T06:33:46.913Z,23.8
2018-09-18T06:34:37.306Z,23.8
2018-09-18T06:35:27.314Z,23.8
2018-09-18T06:36:17.370Z,23.8
2018-09-18T06:37:07.704Z,23.8
2018-09-18T06:37:57.210Z,23.8
2018-09-18T06:38:47.552Z,23.8
2018-09-18T06:39:37.161Z,23.8
2018-09-18T06:40:27.707Z,23.8
2018-09-18T06:41:17.467Z,23.8
2018-09-18T06:42:07.825Z,23.8
2018-09-18T06:42:57.875Z,23.8
2018-09-18T06:43:47.697Z,23.8
2018-09-18T06:44:38.014Z,23.8
2018-09-18T06:45:28.088Z,23.8
2018-09-18T06:46:17.599Z,23.8
2018-09-18T06:47:07.917Z,23.8
2018-09-18T06:47:58.954Z,23.8
2018-09-18T06:48:48.322Z,23.8
2018-09-18T06:49:38.389Z,23.8
2018-09-18T06:50:28.166Z,23.8
2018-09-18T06:51:18.223Z,23.8
2018-09-18T06:52:08.575Z,23.8
2018-09-18T06:52:58.664Z,23.8
2018-09-18T06:53:48.229Z,23.8
2018-09-18T06:54:39.354Z,23.8
2018-09-18T06:55:28.806Z,23.8
2018-09-18T06:56:18.903Z,23.8
2018-09-18T06:57:08.371Z,23.8
2018-09-18T06:57:59.354Z,23.8
2018-09-18T06:58:49.393Z,23.8
2018-09-18T06:59:38.851Z,23.8
2018-09-18T07:00:29.213Z,23.8
2018-09-18T07:01:19.263Z,23.9
2018-09-18T07:02:09.314Z,23.4
2018-09-18T07:02:58.955Z,35.9
2018-09-18T07:03:49.166Z,49
2018-09-18T07:04:39.261Z,51.2
2018-09-18T07:05:29.466Z,50.4
2018-09-18T07:06:19.646Z,49.5
2018-09-18T07:07:09.153Z,48.9
2018-09-18T07:07:59.218Z,48.5
2018-09-18T07:08:49.835Z,47.9
2018-09-18T07:09:40.454Z,47.3
2018-09-18T07:10:29.678Z,46.8
2018-09-18T07:11:19.745Z,46.2
2018-09-18T07:12:10.107Z,45.7
2018-09-18T07:13:00.143Z,45.2
2018-09-18T07:13:49.942Z,44.7
2018-09-18T07:14:40.365Z,44.2
2018-09-18T07:15:30.073Z,43.7
2018-09-18T07:16:20.163Z,43.3
2018-09-18T07:17:10.472Z,42.8
2018-09-18T07:18:00.949Z,42.4
2018-09-18T07:18:50.033Z,41.9
2018-09-18T07:19:40.648Z,42.2
2018-09-18T07:20:30.717Z,46.6
2018-09-18T07:21:20.204Z,53.9
2018-09-18T07:22:10.830Z,54.2
2018-09-18T07:23:01.217Z,53.8
2018-09-18T07:23:50.190Z,52.6
2018-09-18T07:24:40.554Z,50.8
2018-09-18T07:25:31.102Z,49.5
2018-09-18T07:26:20.879Z,49.8
2018-09-18T07:27:11.204Z,51.3
2018-09-18T07:28:01.296Z,52.6
2018-09-18T07:28:51.060Z,53.6
2018-09-18T07:29:41.139Z,53.8
2018-09-18T07:30:31.242Z,53.6
2018-09-18T07:31:21.537Z,53.1
2018-09-18T07:32:11.592Z,52.9
2018-09-18T07:33:01.386Z,53.1
2018-09-18T07:33:52.094Z,53.6
2018-09-18T07:34:41.786Z,54.2
2018-09-18T07:35:31.279Z,54.6
2018-09-18T07:36:21.929Z,54.9
2018-09-18T07:37:11.966Z,55
2018-09-18T07:38:02.029Z,55
2018-09-18T07:38:51.829Z,55.1
2018-09-18T07:39:42.466Z,55.2
2018-09-18T07:40:32.293Z,55.5
2018-09-18T07:41:21.819Z,55.8
2018-09-18T07:42:11.591Z,55.9
2018-09-18T07:43:02.438Z,56.2
2018-09-18T07:43:52.203Z,56.3
2018-09-18T07:44:42.546Z,56.4
2018-09-18T07:45:32.622Z,56.6
2018-09-18T07:46:22.691Z,56.8
2018-09-18T07:47:12.454Z,57
2018-09-18T07:48:02.920Z,57.2
2018-09-18T07:48:52.911Z,57.4
2018-09-18T07:49:43.050Z,57.6
2018-09-18T07:51:23.117Z,57.9
2018-09-18T07:52:13.314Z,58
2018-09-18T07:53:02.900Z,58.2
2018-09-18T07:53:52.966Z,58.3
2018-09-18T07:54:42.812Z,58.4
2018-09-18T07:55:33.473Z,58.6
2018-09-18T07:56:23.433Z,58.8
2018-09-18T07:57:13.506Z,59
2018-09-18T07:58:03.293Z,59.1
2018-09-18T07:58:53.060Z,59.3
2018-09-18T07:59:43.108Z,59.4
2018-09-18T08:00:33.174Z,59.6
2018-09-18T08:01:25.431Z,59.8
2018-09-18T08:02:13.905Z,59.9
2018-09-18T08:03:04.402Z,60.1
2018-09-18T08:03:53.823Z,60.3
2018-09-18T08:04:43.820Z,60.4
2018-09-18T08:05:34.173Z,60.6
2018-09-18T08:06:23.440Z,60.8
2018-09-18T08:07:13.980Z,60.9
2018-09-18T08:08:04.364Z,61.1
2018-09-18T08:08:54.113Z,61.3
2018-09-18T08:09:44.196Z,61.4
2018-09-18T08:10:34.215Z,61.6
2018-09-18T08:11:23.815Z,61.8
2018-09-18T08:12:14.403Z,61.9
2018-09-18T08:13:04.742Z,62.1
2018-09-18T08:13:54.475Z,62.2
2018-09-18T08:14:44.831Z,62.3
2018-09-18T08:15:34.643Z,62.4
2018-09-18T08:16:24.664Z,62.6
2018-09-18T08:17:15.020Z,62.8
2018-09-18T08:18:05.392Z,62.9
2018-09-18T08:18:55.612Z,63.1
2018-09-18T08:19:47.644Z,63.2
2018-09-18T08:20:35.007Z,63.3
2018-09-18T08:21:25.381Z,63.4
2018-09-18T08:22:15.429Z,63.5
2018-09-18T08:23:05.477Z,63.6
2018-09-18T08:23:55.522Z,63.7
2018-09-18T08:24:45.289Z,63.8
2018-09-18T08:25:35.394Z,63.9
2018-09-18T08:26:26.017Z,64.1
2018-09-18T08:27:14.914Z,64.2
2018-09-18T08:28:05.854Z,64.4
2018-09-18T08:28:55.139Z,64.5
2018-09-18T08:29:45.989Z,64.6
2018-09-18T08:30:36.088Z,64.8
2018-09-18T08:31:26.094Z,64.9
2018-09-18T08:32:15.878Z,65
2018-09-18T08:33:07.180Z,65.1
2018-09-18T08:33:56.017Z,65.3
2018-09-18T08:34:46.056Z,65.4
2018-09-18T08:35:36.116Z,65.5
2018-09-18T08:36:26.484Z,65.6
2018-09-18T08:37:15.982Z,65.8
2018-09-18T08:38:06.604Z,65.9
2018-09-18T08:38:56.681Z,66
2018-09-18T08:39:46.428Z,66.1
2018-09-18T08:40:36.568Z,66.2
2018-09-18T08:41:26.974Z,66.3
2018-09-18T08:42:16.137Z,66.4
2018-09-18T08:43:07.030Z,66.4
2018-09-18T08:43:57.132Z,66.6
2018-09-18T08:44:46.926Z,66.7
2018-09-18T08:45:37.306Z,66.8
2018-09-18T08:46:27.910Z,66.9
2018-09-18T08:47:17.524Z,67.1
2018-09-18T08:48:07.316Z,67.2
2018-09-18T08:48:57.494Z,67.3
2018-09-18T08:49:47.333Z,67.4
2018-09-18T08:50:37.827Z,67.4
2018-09-18T08:51:27.894Z,67.5
2018-09-18T08:52:17.306Z,67.6
2018-09-18T08:53:07.858Z,67.7
2018-09-18T08:53:57.633Z,67.8
2018-09-18T08:54:47.707Z,67.9
2018-09-18T08:55:38.326Z,68
2018-09-18T08:56:28.440Z,68.1
2018-09-18T08:57:18.152Z,68.2
2018-09-18T08:58:07.950Z,68.3
2018-09-18T08:58:58.314Z,68.4
2018-09-18T08:59:48.594Z,68.4
2018-09-18T09:00:38.075Z,68.5
2018-09-18T09:01:28.947Z,68.6
2018-09-18T09:02:18.878Z,68.7
2018-09-18T09:03:08.118Z,68.8
2018-09-18T09:03:59.027Z,68.9
2018-09-18T09:04:48.779Z,69
2018-09-18T09:05:38.676Z,68.9
2018-09-18T09:06:29.426Z,68.8
2018-09-18T09:07:18.973Z,68.9
2018-09-18T09:08:09.875Z,69.1
2018-09-18T09:09:00.607Z,69.3
2018-09-18T09:09:48.811Z,69.4
2018-09-18T09:10:40.537Z,69.6
2018-09-18T09:11:28.903Z,69.6
2018-09-18T09:12:19.656Z,69.7
2018-09-18T09:13:08.770Z,69.8
2018-09-18T09:13:59.406Z,69.9
2018-09-18T09:14:49.445Z,70.1
2018-09-18T09:15:40.248Z,70.1
2018-09-18T09:16:29.518Z,70.3
2018-09-18T09:17:19.756Z,70.3
2018-09-18T09:18:11.087Z,70.4
2018-09-18T09:18:59.837Z,70.6
2018-09-18T09:19:49.906Z,70.7
2018-09-18T09:20:39.947Z,70.8
2018-09-18T09:21:30.048Z,70.9
2018-09-18T09:22:20.856Z,71
2018-09-18T09:23:10.713Z,71.1
2018-09-18T09:39:54.812Z,71.6
2018-09-18T09:40:44.309Z,71.4
2018-09-18T09:41:34.587Z,71.4
2018-09-18T09:42:25.091Z,71.6
2018-09-18T09:43:14.270Z,71.9
2018-09-18T09:44:04.559Z,72.1
2018-09-18T09:44:55.232Z,72.1
2018-09-18T09:45:44.674Z,72.1
2018-09-18T09:46:35.019Z,72.2
2018-09-18T09:47:24.841Z,72.3
2018-09-18T09:48:15.149Z,72.4
2018-09-18T09:49:05.199Z,72.4
2018-09-18T09:49:55.517Z,72.4
2018-09-18T09:50:44.771Z,72.4
2018-09-18T09:51:35.726Z,72.3
2018-09-18T09:52:24.850Z,72.1
2018-09-18T09:53:15.031Z,72
2018-09-18T09:54:05.345Z,72
2018-09-18T09:54:55.671Z,72
2018-09-18T09:55:45.713Z,72.1
2018-09-18T09:56:35.516Z,72.1
2018-09-18T09:57:25.568Z,72
2018-09-18T09:58:15.671Z,72.1
2018-09-18T09:59:05.976Z,72.4
2018-09-18T09:59:56.351Z,72.8
2018-09-18T10:00:45.823Z,73.1
2018-09-18T10:01:35.876Z,73.4
2018-09-18T10:02:25.993Z,73.4
2018-09-18T10:03:15.759Z,73.4
2018-09-18T10:04:05.799Z,73.4
2018-09-18T10:04:55.859Z,73.4
2018-09-18T10:05:46.216Z,73.5
2018-09-18T10:06:36.566Z,73.6
2018-09-18T10:07:26.356Z,73.6
2018-09-18T10:08:16.095Z,73.6
2018-09-18T10:09:06.195Z,73.7
2018-09-18T10:09:56.806Z,73.6
2018-09-18T10:10:47.566Z,73.6
2018-09-18T10:11:36.648Z,73.6
2018-09-18T10:12:26.443Z,73.5
2018-09-18T10:13:17.445Z,73.6
2018-09-18T10:14:06.840Z,73.6
2018-09-18T10:14:57.035Z,73.4
2018-09-18T10:15:47.067Z,73.6
2018-09-18T10:16:37.043Z,73.7
2018-09-18T10:17:27.368Z,73.7
2018-09-18T10:18:18.368Z,73.8
2018-09-18T10:19:07.530Z,73.6
2018-09-18T10:19:57.552Z,73.4
2018-09-18T10:20:47.363Z,73.2
2018-09-18T10:21:36.920Z,72.9
2018-09-18T10:22:27.764Z,72.6
2018-09-18T10:23:17.722Z,72.8
2018-09-18T10:24:07.675Z,72.9
2018-09-18T10:24:58.568Z,72.9
2018-09-18T10:25:48.298Z,72.7
2018-09-18T10:26:38.689Z,72.4
2018-09-18T10:27:27.773Z,72.4
2018-09-18T10:28:18.257Z,72.4
2018-09-18T10:29:08.463Z,72.5
2018-09-18T10:29:58.174Z,72.8
2018-09-18T10:30:48.585Z,72.8
2018-09-18T10:31:37.954Z,72.9
2018-09-18T10:32:28.326Z,72.8
2018-09-18T10:33:18.723Z,72.7
2018-09-18T10:34:08.564Z,72.7
2018-09-18T10:34:58.582Z,73
2018-09-18T10:35:48.316Z,73.1
2018-09-18T10:36:38.812Z,73.4
2018-09-18T10:37:29.026Z,73.4
2018-09-18T10:38:18.784Z,73.2
2018-09-18T10:39:09.148Z,73.1
2018-09-18T10:39:58.894Z,73
2018-09-18T10:40:49.393Z,72.9
2018-09-18T10:41:39.430Z,72.9
2018-09-18T10:42:29.394Z,72.8
2018-09-18T10:43:19.522Z,72.7
2018-09-18T10:44:09.219Z,72.6
2018-09-18T10:44:59.308Z,72.6
2018-09-18T10:45:49.214Z,72.8
2018-09-18T10:46:39.703Z,72.9
2018-09-18T10:47:29.467Z,72.9
2018-09-18T10:48:18.931Z,73.1
2018-09-18T10:49:09.806Z,73.4
2018-09-18T10:49:59.601Z,73.4
2018-09-18T10:50:49.647Z,73.3
2018-09-18T10:51:39.421Z,73.3
2018-09-18T10:52:29.892Z,73.4
2018-09-18T10:53:20.468Z,73.5
2018-09-18T10:54:10.271Z,73.4
2018-09-18T10:54:59.969Z,73.6
2018-09-18T10:55:50.412Z,73.8
2018-09-18T10:56:40.688Z,73.8
2018-09-18T10:57:30.157Z,73.6
2018-09-18T10:58:20.554Z,73.4
2018-09-18T10:59:10.520Z,73.6
2018-09-18T11:00:00.475Z,73.7
2018-09-18T11:00:50.805Z,73.7
2018-09-18T11:01:41.139Z,73.8
2018-09-18T11:02:30.958Z,73.8
2018-09-18T11:03:20.703Z,73.9
2018-09-18T11:04:10.732Z,73.6
2018-09-18T11:05:01.404Z,73.8
2018-09-18T11:05:50.943Z,73.9
2018-09-18T11:06:41.370Z,73.9
2018-09-18T11:07:31.309Z,73.8
2018-09-18T11:08:20.717Z,73.8
2018-09-18T11:09:11.664Z,73.8
2018-09-18T11:10:02.209Z,73.8
2018-09-18T11:10:50.726Z,73.8
2018-09-18T11:11:41.787Z,73.8
2018-09-18T11:12:31.817Z,73.6
2018-09-18T11:13:22.069Z,73.4
2018-09-18T11:14:14.255Z,73.3
2018-09-18T11:15:02.020Z,73.3
2018-09-18T11:15:52.913Z,73.4
2018-09-18T11:16:42.049Z,73.4
2018-09-18T11:17:31.736Z,73.4
2018-09-18T11:18:21.824Z,72.7
2018-09-18T11:19:12.243Z,72.6
2018-09-18T11:20:02.391Z,73
2018-09-18T11:20:52.221Z,73.5
2018-09-18T11:21:42.351Z,73.9
2018-09-18T11:22:33.315Z,74.1
2018-09-18T11:23:22.571Z,74.1
2018-09-18T11:24:12.235Z,74.1
2018-09-18T11:25:04.139Z,73.9
2018-09-18T11:25:52.843Z,73.9
2018-09-18T11:26:42.473Z,74
2018-09-18T11:27:32.617Z,74.2
2018-09-18T11:28:23.039Z,74.4
2018-09-18T11:29:12.651Z,74.5
2018-09-18T11:30:02.699Z,74.6
2018-09-18T11:30:53.048Z,74.6
2018-09-18T11:31:43.259Z,74.6
2018-09-18T11:32:33.437Z,74.6
2018-09-18T11:33:22.737Z,74.7
2018-09-18T11:34:13.414Z,74.7
2018-09-18T11:35:03.200Z,74.7
2018-09-18T11:35:53.360Z,74.7
2018-09-18T11:36:43.440Z,74.8
2018-09-18T11:37:32.667Z,74.8
2018-09-18T11:38:23.286Z,74.9
2018-09-18T11:39:13.116Z,74.9
2018-09-18T11:40:03.415Z,74.9
2018-09-18T11:40:53.193Z,74.9
2018-09-18T11:41:43.817Z,74.9
2018-09-18T11:42:33.913Z,75
2018-09-18T11:43:23.959Z,75
2018-09-18T11:44:13.757Z,74.9
2018-09-18T11:45:03.506Z,74.9
2018-09-18T11:45:55.597Z,74.9
2018-09-18T11:46:45.019Z,74.9
2018-09-18T11:47:34.267Z,74.9
2018-09-18T11:48:24.335Z,74.8
2018-09-18T11:49:13.838Z,74.8
2018-09-18T11:50:04.165Z,74.8
2018-09-18T11:50:53.967Z,74.7
2018-09-18T11:51:44.637Z,74.6
2018-09-18T11:52:34.707Z,74.6
2018-09-18T11:53:24.719Z,74.5
2018-09-18T11:54:14.911Z,74.4
2018-09-18T11:55:04.585Z,74.4
2018-09-18T11:55:54.604Z,74.3
2018-09-18T11:56:45.735Z,74.3
2018-09-18T11:57:34.751Z,74.2
2018-09-18T11:58:25.572Z,74.2
2018-09-18T11:59:14.871Z,74.2
2018-09-18T12:00:04.976Z,74.2
2018-09-18T12:00:55.006Z,74.1